Time;durP1;ratioP1;P1;durP2;ratioP2;P2;SDS_P1;SDS_P2;PMS_P1;PMS_P2;Temp;Humidity;BMP_temperature;BMP_pressure;BME280_temperature;BME280_humidity;BME280_pressure;Samples;Min_cycle;Max_cycle;Signal;HPM_P1;HPM_P2
2021/03/03 00:01:47;;;;;;;;;;;8.60;83.10;;;;;;5115437;27;19914;-59
2021/03/03 00:04:12;;;;;;;;;;;8.60;83.00;;;;;;5116019;27;19911;-58
2021/03/03 00:06:38;;;;;;;;;;;8.60;83.00;;;;;;5120907;27;19916;-60
2021/03/03 00:09:03;;;;;;;;;;;8.60;83.00;;;;;;5092353;28;19930;-56
2021/03/03 00:11:29;;;;;;;;;;;8.50;83.00;;;;;;5118085;27;19923;-58
2021/03/03 00:13:54;;;;;;;;;;;8.50;83.00;;;;;;5092804;28;19912;-57
2021/03/03 00:16:20;;;;;;;;;;;8.50;83.10;;;;;;5093395;28;19922;-59
2021/03/03 00:18:46;;;;;;;;;;;8.50;83.30;;;;;;5121357;27;20247;-59
2021/03/03 00:21:11;;;;;;;;;;;8.50;83.30;;;;;;5107609;27;20284;-57
2021/03/03 00:23:37;;;;;;;;;;;8.50;83.30;;;;;;5097280;27;19926;-58
2021/03/03 00:26:02;;;;;;;;;;;8.50;83.30;;;;;;5112229;27;19908;-58
2021/03/03 00:28:27;;;;;;;;;;;8.40;83.10;;;;;;5122508;27;19907;-59
2021/03/03 00:30:53;;;;;;;;;;;8.50;83.30;;;;;;5113426;27;20355;-59
2021/03/03 00:33:18;;;;;;;;;;;8.40;83.30;;;;;;5118889;27;19915;-57
2021/03/03 00:35:44;;;;;;;;;;;8.40;83.30;;;;;;5117801;27;20390;-57
2021/03/03 00:38:09;;;;;;;;;;;8.40;83.30;;;;;;5113031;27;19927;-59
2021/03/03 00:40:35;;;;;;;;;;;8.40;83.40;;;;;;5113457;27;19911;-57
2021/03/03 00:43:00;;;;;;;;;;;8.40;83.30;;;;;;5118096;27;19908;-59
2021/03/03 00:45:26;;;;;;;;;;;8.40;83.40;;;;;;5099998;28;19915;-56
2021/03/03 00:47:51;;;;;;;;;;;8.40;83.40;;;;;;5114059;27;20281;-57
2021/03/03 00:50:17;;;;;;;;;;;8.40;83.50;;;;;;5094543;28;19914;-59
2021/03/03 00:52:42;;;;;;;;;;;8.30;83.30;;;;;;5116626;27;19912;-59
2021/03/03 00:55:08;;;;;;;;;;;8.30;83.50;;;;;;5099307;28;20021;-57
2021/03/03 00:57:33;;;;;;;;;;;8.30;83.40;;;;;;5096457;27;19908;-58
2021/03/03 00:59:59;;;;;;;;;;;8.30;83.40;;;;;;5114138;27;19985;-59
2021/03/03 01:02:24;;;;;;;;;;;8.30;83.50;;;;;;5114986;27;20397;-59
2021/03/03 01:04:50;;;;;;;;;;;8.30;83.50;;;;;;5112176;27;19951;-60
2021/03/03 01:07:15;;;;;;;;;;;8.30;83.50;;;;;;5089085;27;19919;-60
2021/03/03 01:09:41;;;;;;;;;;;8.20;83.60;;;;;;5114614;27;19972;-58
2021/03/03 01:12:06;;;;;;;;;;;8.20;83.60;;;;;;5115817;27;19912;-56
2021/03/03 01:14:32;;;;;;;;;;;8.20;83.60;;;;;;5101731;28;19908;-56
2021/03/03 01:16:57;;;;;;;;;;;8.20;83.60;;;;;;5115838;27;19943;-57
2021/03/03 01:19:23;;;;;;;;;;;8.20;83.60;;;;;;5116625;27;19914;-57
2021/03/03 01:21:48;;;;;;;;;;;8.20;83.60;;;;;;5093380;28;20374;-60
2021/03/03 01:24:14;;;;;;;;;;;8.20;83.60;;;;;;5115045;27;19915;-57
2021/03/03 01:26:40;;;;;;;;;;;8.20;83.60;;;;;;5115531;27;19912;-61
2021/03/03 01:29:05;;;;;;;;;;;8.20;83.60;;;;;;5110014;28;19916;-57
2021/03/03 01:31:32;;;;;;;;;;;8.20;83.70;;;;;;5114370;27;19973;-58
2021/03/03 01:33:57;;;;;;;;;;;8.20;83.80;;;;;;5115939;27;19940;-59
2021/03/03 01:36:22;;;;;;;;;;;8.20;83.80;;;;;;5110661;28;20359;-57
2021/03/03 01:38:48;;;;;;;;;;;8.10;83.70;;;;;;5115750;27;19950;-57
2021/03/03 01:41:13;;;;;;;;;;;8.10;83.90;;;;;;5110286;28;19908;-57
2021/03/03 01:43:39;;;;;;;;;;;8.10;83.90;;;;;;5113485;27;19912;-61
2021/03/03 01:46:04;;;;;;;;;;;8.10;83.90;;;;;;5114940;27;20393;-59
2021/03/03 01:48:30;;;;;;;;;;;8.10;84.50;;;;;;5115066;27;19998;-58
2021/03/03 01:50:55;;;;;;;;;;;8.10;83.80;;;;;;5114972;27;19914;-57
2021/03/03 01:53:21;;;;;;;;;;;8.00;83.90;;;;;;5096014;28;19907;-59
2021/03/03 01:55:46;;;;;;;;;;;8.00;83.80;;;;;;5109754;28;19923;-57
2021/03/03 01:58:11;;;;;;;;;;;8.00;83.90;;;;;;5114145;28;20355;-59
2021/03/03 02:00:37;;;;;;;;;;;8.00;83.90;;;;;;5115681;27;19911;-58
2021/03/03 02:03:03;;;;;;;;;;;8.00;83.80;;;;;;5110460;28;19912;-60
2021/03/03 02:05:28;;;;;;;;;;;8.00;83.90;;;;;;5109369;28;20283;-58
2021/03/03 02:07:53;;;;;;;;;;;8.00;84.00;;;;;;5095920;28;20271;-58
2021/03/03 02:10:35;;;;;;;;;;;8.00;84.00;;;;;;5112840;28;19914;-58
2021/03/03 02:13:08;;;;;;;;;;;8.00;84.00;;;;;;5110770;28;20006;-58
2021/03/03 02:15:33;;;;;;;;;;;8.00;84.10;;;;;;5100521;28;19912;-59
2021/03/03 02:17:59;;;;;;;;;;;7.90;84.10;;;;;;5096024;28;19915;-59
2021/03/03 02:20:25;;;;;;;;;;;7.90;84.10;;;;;;5081107;28;20129;-59
2021/03/03 02:22:51;;;;;;;;;;;7.90;84.10;;;;;;5104749;28;19915;-59
2021/03/03 02:25:24;;;;;;;;;;;7.90;84.10;;;;;;5118142;27;20373;-57
2021/03/03 02:27:49;;;;;;;;;;;7.90;84.20;;;;;;5118524;27;19912;-57
2021/03/03 02:30:15;;;;;;;;;;;7.90;84.20;;;;;;5095683;28;19930;-57
2021/03/03 02:32:40;;;;;;;;;;;7.90;84.20;;;;;;5113199;28;19922;-57
2021/03/03 02:35:06;;;;;;;;;;;7.90;84.20;;;;;;5098390;28;19942;-57
2021/03/03 02:37:32;;;;;;;;;;;7.80;84.20;;;;;;5097976;28;19930;-58
2021/03/03 02:39:57;;;;;;;;;;;7.80;84.80;;;;;;5116283;27;19907;-59
2021/03/03 02:42:23;;;;;;;;;;;7.80;84.30;;;;;;5115503;27;19961;-58
2021/03/03 02:44:48;;;;;;;;;;;7.80;84.20;;;;;;5117044;27;19927;-57
2021/03/03 02:47:14;;;;;;;;;;;7.80;84.30;;;;;;5098937;28;20406;-59
2021/03/03 02:49:39;;;;;;;;;;;7.80;84.30;;;;;;5113609;27;19979;-56
2021/03/03 02:52:05;;;;;;;;;;;7.80;84.30;;;;;;5089025;28;19912;-58
2021/03/03 02:54:30;;;;;;;;;;;7.80;84.30;;;;;;5100336;27;19911;-58
2021/03/03 02:56:55;;;;;;;;;;;7.70;84.20;;;;;;5115917;27;20359;-59
2021/03/03 02:59:28;;;;;;;;;;;7.80;84.30;;;;;;5119442;27;19915;-60
2021/03/03 03:01:53;;;;;;;;;;;7.70;84.40;;;;;;5093717;28;19957;-58
2021/03/03 03:04:19;;;;;;;;;;;7.70;84.50;;;;;;5089806;28;19920;-59
2021/03/03 03:06:44;;;;;;;;;;;7.70;84.30;;;;;;5095203;28;19960;-61
2021/03/03 03:09:13;;;;;;;;;;;7.60;84.40;;;;;;5119770;27;19919;-60
2021/03/03 03:11:41;;;;;;;;;;;7.70;84.50;;;;;;5119149;27;19912;-59
2021/03/03 03:14:08;;;;;;;;;;;7.60;84.30;;;;;;5093865;28;19912;-57
2021/03/03 03:16:34;;;;;;;;;;;7.70;84.40;;;;;;5093476;28;19915;-59
2021/03/03 03:19:00;;;;;;;;;;;7.70;84.40;;;;;;5119268;27;19965;-58
2021/03/03 03:21:26;;;;;;;;;;;7.60;84.40;;;;;;5095120;28;19908;-57
2021/03/03 03:23:52;;;;;;;;;;;7.60;84.50;;;;;;5087389;28;19965;-59
2021/03/03 03:26:17;;;;;;;;;;;7.60;85.20;;;;;;5112628;27;20309;-58
2021/03/03 03:28:43;;;;;;;;;;;7.60;84.50;;;;;;5094352;28;19954;-57
2021/03/03 03:31:08;;;;;;;;;;;7.60;84.50;;;;;;5094036;28;19908;-59
2021/03/03 03:33:34;;;;;;;;;;;7.60;84.40;;;;;;5101682;28;20419;-57
2021/03/03 03:36:00;;;;;;;;;;;7.60;84.60;;;;;;5101171;28;19923;-57
2021/03/03 03:38:27;;;;;;;;;;;7.60;84.60;;;;;;5118494;27;19911;-57
2021/03/03 03:40:52;;;;;;;;;;;7.50;84.70;;;;;;5111412;28;19990;-58
2021/03/03 03:43:17;;;;;;;;;;;7.50;84.70;;;;;;5118935;27;19965;-58
2021/03/03 03:45:43;;;;;;;;;;;7.50;84.80;;;;;;5094320;28;19908;-57
2021/03/03 03:48:09;;;;;;;;;;;7.50;84.70;;;;;;5101549;28;19911;-57
2021/03/03 03:50:34;;;;;;;;;;;7.50;84.80;;;;;;5092842;28;19912;-59
2021/03/03 03:53:00;;;;;;;;;;;7.50;84.70;;;;;;5110156;28;19968;-58
2021/03/03 03:55:29;;;;;;;;;;;7.50;84.70;;;;;;5098489;28;19943;-57
2021/03/03 03:57:54;;;;;;;;;;;7.40;84.60;;;;;;5113020;27;20270;-58
2021/03/03 04:00:20;;;;;;;;;;;7.50;84.70;;;;;;5112383;28;20259;-57
2021/03/03 04:02:46;;;;;;;;;;;7.50;84.80;;;;;;5099628;28;20271;-59
2021/03/03 04:05:14;;;;;;;;;;;7.40;84.80;;;;;;5096723;28;19912;-60
2021/03/03 04:07:39;;;;;;;;;;;7.40;84.80;;;;;;5117524;27;19908;-57
2021/03/03 04:10:05;;;;;;;;;;;7.40;84.70;;;;;;5112105;27;19915;-58
2021/03/03 04:12:31;;;;;;;;;;;7.40;84.80;;;;;;5119234;27;20028;-57
2021/03/03 04:14:56;;;;;;;;;;;7.40;84.80;;;;;;5119645;27;19916;-56
2021/03/03 04:17:22;;;;;;;;;;;7.40;84.90;;;;;;5119089;27;19911;-60
2021/03/03 04:19:47;;;;;;;;;;;7.40;85.00;;;;;;5110632;27;19956;-60
2021/03/03 04:22:13;;;;;;;;;;;7.30;84.90;;;;;;5118158;27;20252;-56
2021/03/03 04:24:39;;;;;;;;;;;7.40;84.90;;;;;;5100966;28;19999;-61
2021/03/03 04:27:04;;;;;;;;;;;7.30;84.80;;;;;;5113069;27;20011;-59
2021/03/03 04:29:29;;;;;;;;;;;7.30;84.80;;;;;;5110491;28;19918;-60
2021/03/03 04:31:55;;;;;;;;;;;7.30;84.90;;;;;;5100308;28;19908;-57
2021/03/03 04:34:20;;;;;;;;;;;7.30;84.90;;;;;;5099137;28;19918;-58
2021/03/03 04:36:46;;;;;;;;;;;7.30;84.90;;;;;;5110815;28;20287;-56
2021/03/03 04:39:11;;;;;;;;;;;7.30;85.50;;;;;;5110061;28;19916;-60
2021/03/03 04:41:37;;;;;;;;;;;7.30;85.00;;;;;;5102544;28;19914;-60
2021/03/03 04:44:02;;;;;;;;;;;7.30;84.90;;;;;;5110424;28;19912;-59
2021/03/03 04:46:28;;;;;;;;;;;7.30;84.90;;;;;;5109823;28;20705;-57
2021/03/03 04:48:53;;;;;;;;;;;7.30;84.90;;;;;;5110558;28;19912;-56
2021/03/03 04:51:18;;;;;;;;;;;7.30;85.00;;;;;;5111238;28;19955;-60
2021/03/03 04:53:44;;;;;;;;;;;7.30;85.00;;;;;;5111661;28;19911;-56
2021/03/03 04:56:09;;;;;;;;;;;7.20;85.00;;;;;;5110761;28;19915;-59
2021/03/03 04:58:35;;;;;;;;;;;7.20;85.00;;;;;;5110280;28;20442;-57
2021/03/03 05:01:00;;;;;;;;;;;7.20;84.90;;;;;;5115811;27;19911;-59
2021/03/03 05:03:26;;;;;;;;;;;7.20;85.00;;;;;;5113635;27;19916;-59
2021/03/03 05:05:51;;;;;;;;;;;7.20;85.00;;;;;;5114431;27;20694;-59
2021/03/03 05:08:17;;;;;;;;;;;7.20;85.10;;;;;;5110923;28;19908;-58
2021/03/03 05:10:42;;;;;;;;;;;7.20;85.10;;;;;;5110367;28;19912;-57
2021/03/03 05:13:15;;;;;;;;;;;7.20;85.10;;;;;;5109271;28;19957;-57
2021/03/03 05:15:40;;;;;;;;;;;7.20;85.10;;;;;;5110772;28;19915;-59
2021/03/03 05:18:06;;;;;;;;;;;7.10;85.10;;;;;;5111155;28;19912;-58
2021/03/03 05:20:31;;;;;;;;;;;7.10;85.10;;;;;;5116549;27;19907;-59
2021/03/03 05:22:57;;;;;;;;;;;7.10;85.10;;;;;;5111380;27;19915;-56
2021/03/03 05:25:22;;;;;;;;;;;7.10;85.30;;;;;;5109312;28;19919;-57
2021/03/03 05:27:47;;;;;;;;;;;7.10;85.30;;;;;;5118179;27;19907;-59
2021/03/03 05:30:13;;;;;;;;;;;7.10;85.40;;;;;;5116706;27;20359;-59
2021/03/03 05:32:39;;;;;;;;;;;7.10;85.30;;;;;;5121853;27;19945;-59
2021/03/03 05:35:04;;;;;;;;;;;7.10;85.30;;;;;;5115785;27;20354;-57
2021/03/03 05:37:30;;;;;;;;;;;7.00;85.30;;;;;;5111597;27;19930;-58
2021/03/03 05:39:55;;;;;;;;;;;7.00;85.40;;;;;;5116629;27;19950;-56
2021/03/03 05:42:21;;;;;;;;;;;7.00;85.40;;;;;;5119069;27;19908;-59
2021/03/03 05:44:46;;;;;;;;;;;7.00;85.40;;;;;;5080831;27;19915;-58
2021/03/03 05:47:13;;;;;;;;;;;7.00;85.40;;;;;;5094342;28;19916;-59
2021/03/03 05:49:38;;;;;;;;;;;7.00;85.40;;;;;;5096778;28;19918;-57
2021/03/03 05:52:04;;;;;;;;;;;7.00;85.40;;;;;;5091801;28;19912;-57
2021/03/03 05:54:29;;;;;;;;;;;7.00;85.40;;;;;;5099129;28;19918;-58
2021/03/03 05:56:55;;;;;;;;;;;7.00;85.50;;;;;;5118337;27;19912;-58
2021/03/03 05:59:20;;;;;;;;;;;7.00;85.60;;;;;;5092180;28;19912;-61
2021/03/03 06:01:46;;;;;;;;;;;7.00;85.50;;;;;;5091397;28;20353;-56
2021/03/03 06:04:11;;;;;;;;;;;7.00;85.50;;;;;;5116065;28;19961;-58
2021/03/03 06:06:41;;;;;;;;;;;7.00;85.50;;;;;;5097769;28;20010;-59
2021/03/03 06:09:06;;;;;;;;;;;6.90;85.50;;;;;;5115901;28;19930;-57
2021/03/03 06:11:32;;;;;;;;;;;6.90;85.50;;;;;;5118046;28;19907;-57
2021/03/03 06:14:01;;;;;;;;;;;6.90;85.50;;;;;;5096509;28;19911;-57
2021/03/03 06:16:26;;;;;;;;;;;6.90;85.40;;;;;;5091647;28;20293;-56
2021/03/03 06:18:53;;;;;;;;;;;6.90;85.40;;;;;;5114822;28;19915;-61
2021/03/03 06:21:28;;;;;;;;;;;6.90;85.40;;;;;;5116241;28;20410;-57
2021/03/03 06:23:57;;;;;;;;;;;6.90;85.50;;;;;;5080706;28;20400;-58
2021/03/03 06:26:23;;;;;;;;;;;6.90;85.50;;;;;;5102374;28;19952;-58
2021/03/03 06:28:48;;;;;;;;;;;6.90;85.40;;;;;;5107553;28;19916;-57
2021/03/03 06:31:33;;;;;;;;;;;6.90;85.40;;;;;;5108284;28;19915;-59
2021/03/03 06:34:28;;;;;;;;;;;6.90;85.30;;;;;;5091885;28;19908;-59
2021/03/03 06:36:56;;;;;;;;;;;6.90;85.30;;;;;;5082129;28;20346;-57
2021/03/03 06:39:34;;;;;;;;;;;6.90;85.40;;;;;;5109751;28;19991;-57
2021/03/03 06:42:00;;;;;;;;;;;6.90;85.40;;;;;;5109785;28;19911;-58
2021/03/03 06:44:35;;;;;;;;;;;6.90;85.40;;;;;;5108137;28;20220;-58
2021/03/03 06:47:05;;;;;;;;;;;6.90;85.40;;;;;;5091956;28;20371;-60
2021/03/03 06:49:30;;;;;;;;;;;6.90;85.40;;;;;;5091646;28;20324;-57
2021/03/03 06:51:56;;;;;;;;;;;6.90;85.40;;;;;;5092606;28;19911;-58
2021/03/03 06:54:21;;;;;;;;;;;6.90;85.50;;;;;;5090712;28;19955;-59
2021/03/03 06:56:47;;;;;;;;;;;6.90;85.40;;;;;;5108766;28;20362;-57
2021/03/03 06:59:19;;;;;;;;;;;6.80;85.40;;;;;;5080082;28;19979;-58
2021/03/03 07:01:54;;;;;;;;;;;6.90;85.50;;;;;;5093769;28;19911;-57
2021/03/03 07:04:30;;;;;;;;;;;6.90;85.40;;;;;;5079158;28;19916;-58
2021/03/03 07:06:57;;;;;;;;;;;6.90;85.30;;;;;;5078693;27;19923;-60
2021/03/03 07:09:23;;;;;;;;;;;6.90;85.30;;;;;;5111628;28;20392;-57
2021/03/03 07:11:49;;;;;;;;;;;6.90;85.30;;;;;;5089997;27;19922;-58
2021/03/03 07:14:15;;;;;;;;;;;6.90;85.30;;;;;;5108973;27;19916;-58
2021/03/03 07:17:19;;;;;;;;;;;6.90;85.30;;;;;;5108402;27;19922;-58
2021/03/03 07:19:48;;;;;;;;;;;6.90;85.10;;;;;;5027396;28;19913;-59
2021/03/03 07:22:22;;;;;;;;;;;6.90;85.20;;;;;;5011765;28;20006;-57
2021/03/03 07:24:50;;;;;;;;;;;6.90;85.20;;;;;;5075266;27;20378;-58
2021/03/03 07:27:17;;;;;;;;;;;6.90;85.30;;;;;;5094899;28;20593;-59
2021/03/03 07:29:42;;;;;;;;;;;6.90;85.20;;;;;;5105478;27;19954;-57
2021/03/03 07:32:08;;;;;;;;;;;6.90;85.20;;;;;;5107702;28;19955;-56
2021/03/03 07:34:33;;;;;;;;;;;6.90;85.20;;;;;;5084171;28;19965;-59
2021/03/03 07:37:01;;;;;;;;;;;6.90;85.20;;;;;;5086959;28;20398;-58
2021/03/03 07:39:27;;;;;;;;;;;7.10;85.30;;;;;;5092732;28;19919;-59
2021/03/03 07:41:52;;;;;;;;;;;6.90;85.10;;;;;;5084700;28;20387;-59
2021/03/03 07:44:18;;;;;;;;;;;6.90;85.10;;;;;;5092392;28;19969;-58
2021/03/03 07:46:47;;;;;;;;;;;6.90;85.00;;;;;;5084358;28;19912;-58
2021/03/03 07:49:13;;;;;;;;;;;7.00;85.10;;;;;;5087686;28;19998;-58
2021/03/03 07:51:41;;;;;;;;;;;7.00;85.00;;;;;;5110489;27;20423;-57
2021/03/03 07:54:13;;;;;;;;;;;7.00;85.00;;;;;;5086903;28;19923;-59
2021/03/03 07:56:38;;;;;;;;;;;7.00;85.00;;;;;;5088008;28;19998;-56
2021/03/03 07:59:04;;;;;;;;;;;7.00;85.00;;;;;;5084602;28;20029;-59
2021/03/03 08:01:30;;;;;;;;;;;7.00;85.00;;;;;;5101147;27;20442;-59
2021/03/03 08:03:56;;;;;;;;;;;7.00;85.00;;;;;;5079449;28;19924;-58
2021/03/03 08:06:22;;;;;;;;;;;7.00;84.90;;;;;;5100277;28;20339;-57
2021/03/03 08:09:05;;;;;;;;;;;7.00;84.90;;;;;;5109324;28;19987;-59
2021/03/03 08:11:31;;;;;;;;;;;7.10;85.00;;;;;;5110109;27;20002;-57
2021/03/03 08:13:57;;;;;;;;;;;7.10;85.00;;;;;;5115656;27;20058;-58
2021/03/03 08:16:22;;;;;;;;;;;7.10;85.00;;;;;;5086666;28;19919;-59
2021/03/03 08:18:48;;;;;;;;;;;7.10;85.00;;;;;;5089876;28;19911;-59
2021/03/03 08:21:16;;;;;;;;;;;7.10;85.00;;;;;;5105121;28;20450;-57
2021/03/03 08:23:42;;;;;;;;;;;7.10;85.00;;;;;;5098671;27;20340;-60
2021/03/03 08:26:17;;;;;;;;;;;7.10;85.00;;;;;;5092944;28;20049;-58
2021/03/03 08:28:45;;;;;;;;;;;7.20;85.00;;;;;;5099458;28;19912;-57
2021/03/03 08:31:13;;;;;;;;;;;7.20;85.00;;;;;;5117771;27;19911;-59
2021/03/03 08:33:39;;;;;;;;;;;7.20;85.00;;;;;;5105635;28;19911;-58
2021/03/03 08:36:05;;;;;;;;;;;7.20;85.00;;;;;;5084828;28;20256;-59
2021/03/03 08:38:30;;;;;;;;;;;7.20;85.00;;;;;;5111011;27;19926;-60
2021/03/03 08:41:14;;;;;;;;;;;7.20;85.00;;;;;;5111718;27;20079;-57
2021/03/03 08:43:42;;;;;;;;;;;7.20;84.90;;;;;;5116280;27;19912;-56
2021/03/03 08:46:20;;;;;;;;;;;7.30;85.00;;;;;;5108571;27;19912;-58
2021/03/03 08:48:51;;;;;;;;;;;7.30;85.00;;;;;;5105524;28;19908;-56
2021/03/03 08:51:35;;;;;;;;;;;7.30;85.00;;;;;;5102407;28;20386;-57
2021/03/03 08:54:04;;;;;;;;;;;7.30;85.00;;;;;;5087065;28;19953;-60
2021/03/03 08:56:36;;;;;;;;;;;7.30;84.90;;;;;;5100508;27;19919;-58
2021/03/03 08:59:05;;;;;;;;;;;7.30;84.90;;;;;;5108427;28;20048;-57
2021/03/03 09:02:09;;;;;;;;;;;7.40;84.80;;;;;;5104804;27;20594;-57
2021/03/03 09:04:40;;;;;;;;;;;7.40;84.90;;;;;;4992642;28;19936;-58
2021/03/03 09:07:07;;;;;;;;;;;7.40;84.80;;;;;;5004899;28;19967;-58
2021/03/03 09:09:39;;;;;;;;;;;7.40;85.20;;;;;;5054120;28;19908;-58
2021/03/03 09:12:05;;;;;;;;;;;7.40;84.50;;;;;;5108401;28;20356;-59
2021/03/03 09:14:31;;;;;;;;;;;7.40;84.50;;;;;;5109880;27;19938;-58
2021/03/03 09:16:57;;;;;;;;;;;7.50;84.90;;;;;;5090347;28;20375;-60
2021/03/03 09:19:23;;;;;;;;;;;7.50;84.50;;;;;;5089128;27;19912;-57
2021/03/03 09:21:49;;;;;;;;;;;7.50;84.50;;;;;;5112759;27;20390;-56
2021/03/03 09:24:14;;;;;;;;;;;7.50;84.50;;;;;;5109243;28;19998;-60
2021/03/03 09:26:40;;;;;;;;;;;7.60;84.40;;;;;;5109702;27;20448;-58
2021/03/03 09:29:05;;;;;;;;;;;7.60;84.40;;;;;;5104914;28;19930;-58
2021/03/03 09:31:32;;;;;;;;;;;7.60;84.40;;;;;;5103189;28;19918;-58
2021/03/03 09:33:57;;;;;;;;;;;7.60;84.40;;;;;;5103155;27;19912;-60
2021/03/03 09:36:23;;;;;;;;;;;7.60;84.30;;;;;;5100180;28;20716;-60
2021/03/03 09:38:58;;;;;;;;;;;7.60;84.20;;;;;;5108660;28;19976;-58
2021/03/03 09:41:24;;;;;;;;;;;7.70;84.20;;;;;;5105318;28;20371;-58
2021/03/03 09:43:59;;;;;;;;;;;7.70;84.20;;;;;;5090230;28;19926;-58
2021/03/03 09:46:25;;;;;;;;;;;7.70;84.10;;;;;;5086548;28;19955;-58
2021/03/03 09:48:50;;;;;;;;;;;7.70;83.90;;;;;;5094788;28;19970;-57
2021/03/03 09:51:16;;;;;;;;;;;7.70;83.80;;;;;;5087567;28;19924;-57
2021/03/03 09:53:51;;;;;;;;;;;7.80;83.80;;;;;;5102742;28;19916;-58
2021/03/03 09:56:35;;;;;;;;;;;7.80;83.80;;;;;;5107136;28;19923;-58
2021/03/03 09:59:00;;;;;;;;;;;7.80;83.70;;;;;;5100353;28;19995;-58
2021/03/03 10:01:26;;;;;;;;;;;7.90;83.60;;;;;;5080960;28;20187;-57
2021/03/03 10:03:53;;;;;;;;;;;7.90;83.60;;;;;;5081634;28;19961;-59
2021/03/03 10:06:18;;;;;;;;;;;7.90;83.40;;;;;;5106771;28;19908;-59
2021/03/03 10:08:44;;;;;;;;;;;7.90;83.30;;;;;;5082064;28;19916;-56
2021/03/03 10:11:09;;;;;;;;;;;7.90;83.30;;;;;;5088951;28;19912;-59
2021/03/03 10:13:40;;;;;;;;;;;8.00;83.20;;;;;;5109594;28;20339;-59
2021/03/03 10:16:24;;;;;;;;;;;8.00;83.10;;;;;;5084391;28;20003;-59
2021/03/03 10:18:59;;;;;;;;;;;8.00;83.10;;;;;;5102684;28;20212;-59
2021/03/03 10:21:25;;;;;;;;;;;8.10;83.10;;;;;;5110942;28;20371;-59
2021/03/03 10:23:51;;;;;;;;;;;8.10;83.00;;;;;;5107452;28;20034;-59
2021/03/03 10:26:16;;;;;;;;;;;8.10;82.90;;;;;;5083892;28;21263;-58
2021/03/03 10:28:42;;;;;;;;;;;8.10;82.80;;;;;;5112794;28;19912;-59
2021/03/03 10:31:08;;;;;;;;;;;8.20;82.90;;;;;;5105323;28;20374;-60
2021/03/03 10:33:35;;;;;;;;;;;8.20;82.70;;;;;;5089914;28;19911;-57
2021/03/03 10:36:01;;;;;;;;;;;8.20;82.70;;;;;;5113287;28;19918;-57
2021/03/03 10:38:26;;;;;;;;;;;8.30;82.60;;;;;;5112980;27;20101;-59
2021/03/03 10:40:52;;;;;;;;;;;8.30;82.50;;;;;;5074956;28;19980;-58
2021/03/03 10:43:27;;;;;;;;;;;8.30;82.30;;;;;;5072796;28;19916;-57
2021/03/03 10:46:11;;;;;;;;;;;8.30;82.40;;;;;;5102178;28;19928;-58
2021/03/03 10:48:37;;;;;;;;;;;8.40;82.40;;;;;;5104212;27;19918;-59
2021/03/03 10:51:02;;;;;;;;;;;8.40;82.40;;;;;;5106141;27;19916;-56
2021/03/03 10:53:47;;;;;;;;;;;8.40;82.20;;;;;;5088363;28;19916;-58
2021/03/03 10:56:31;;;;;;;;;;;8.40;82.20;;;;;;5107571;27;19919;-56
2021/03/03 10:59:03;;;;;;;;;;;8.50;82.20;;;;;;5100083;28;19923;-57
2021/03/03 11:01:41;;;;;;;;;;;8.60;82.10;;;;;;5108711;27;20382;-60
2021/03/03 11:04:07;;;;;;;;;;;8.60;82.00;;;;;;5103333;28;19921;-58
2021/03/03 11:06:33;;;;;;;;;;;8.60;81.90;;;;;;5110555;27;20039;-58
2021/03/03 11:08:58;;;;;;;;;;;8.70;81.90;;;;;;5110369;27;19919;-57
2021/03/03 11:11:24;;;;;;;;;;;8.70;81.80;;;;;;5105650;28;19916;-58
2021/03/03 11:13:49;;;;;;;;;;;8.70;81.80;;;;;;5092315;28;20377;-57
2021/03/03 11:16:15;;;;;;;;;;;8.70;81.60;;;;;;5110919;27;19918;-57
2021/03/03 11:18:40;;;;;;;;;;;8.80;81.50;;;;;;5099479;28;20053;-58
2021/03/03 11:21:06;;;;;;;;;;;8.80;81.30;;;;;;5079839;28;19916;-58
2021/03/03 11:23:31;;;;;;;;;;;8.90;81.40;;;;;;5106228;28;19975;-59
2021/03/03 11:25:57;;;;;;;;;;;8.90;81.40;;;;;;5090194;28;19912;-59
2021/03/03 11:28:23;;;;;;;;;;;8.90;81.30;;;;;;5102400;28;19916;-57
2021/03/03 11:30:49;;;;;;;;;;;8.90;81.20;;;;;;5086394;28;19912;-57
2021/03/03 11:33:14;;;;;;;;;;;9.00;81.20;;;;;;5067265;28;19916;-60
2021/03/03 11:35:39;;;;;;;;;;;9.00;81.10;;;;;;5110804;28;19964;-58
2021/03/03 11:38:05;;;;;;;;;;;9.00;81.10;;;;;;5112504;27;20368;-60
2021/03/03 11:40:30;;;;;;;;;;;9.10;80.90;;;;;;5093663;28;19990;-56
2021/03/03 11:42:56;;;;;;;;;;;9.10;80.90;;;;;;5111520;28;20402;-57
2021/03/03 11:45:21;;;;;;;;;;;9.10;80.80;;;;;;5110475;28;19911;-58
2021/03/03 11:47:47;;;;;;;;;;;9.20;80.70;;;;;;5112131;28;19908;-58
2021/03/03 11:50:12;;;;;;;;;;;9.20;80.70;;;;;;5111214;27;19976;-59
2021/03/03 11:52:38;;;;;;;;;;;9.20;80.70;;;;;;5091047;27;19926;-59
2021/03/03 11:55:04;;;;;;;;;;;9.30;80.60;;;;;;5110652;27;19920;-59
2021/03/03 11:57:29;;;;;;;;;;;9.30;80.50;;;;;;5087908;28;19911;-57
2021/03/03 11:59:55;;;;;;;;;;;9.30;80.40;;;;;;5115079;27;19980;-59
2021/03/03 12:02:20;;;;;;;;;;;9.40;80.50;;;;;;5102623;28;19922;-58
2021/03/03 12:04:46;;;;;;;;;;;9.40;80.40;;;;;;5113500;27;20461;-57
2021/03/03 12:07:11;;;;;;;;;;;9.40;80.40;;;;;;5113874;27;19914;-59
2021/03/03 12:09:37;;;;;;;;;;;9.40;80.20;;;;;;5112618;27;19908;-57
2021/03/03 12:12:02;;;;;;;;;;;9.50;80.20;;;;;;5110600;28;19907;-57
2021/03/03 12:14:28;;;;;;;;;;;9.50;80.00;;;;;;5114530;27;19914;-56
2021/03/03 12:16:53;;;;;;;;;;;9.60;80.00;;;;;;5092988;28;19908;-56
2021/03/03 12:19:19;;;;;;;;;;;9.60;80.00;;;;;;5101543;27;20457;-56
2021/03/03 12:21:44;;;;;;;;;;;9.60;79.90;;;;;;5089828;28;19912;-59
2021/03/03 12:24:10;;;;;;;;;;;9.60;79.70;;;;;;5075119;28;19977;-56
2021/03/03 12:26:35;;;;;;;;;;;9.70;79.80;;;;;;5114278;27;19916;-57
2021/03/03 12:29:01;;;;;;;;;;;9.80;79.80;;;;;;5111486;27;20341;-57
2021/03/03 12:31:26;;;;;;;;;;;9.80;79.40;;;;;;5089538;28;19919;-57
2021/03/03 12:33:52;;;;;;;;;;;9.80;79.50;;;;;;5103907;28;19916;-60
2021/03/03 12:36:17;;;;;;;;;;;9.80;79.20;;;;;;5098512;28;19916;-57
2021/03/03 12:38:43;;;;;;;;;;;9.90;79.40;;;;;;5104724;27;19919;-57
2021/03/03 12:41:08;;;;;;;;;;;9.90;79.50;;;;;;5073821;28;19919;-57
2021/03/03 12:43:33;;;;;;;;;;;9.90;79.20;;;;;;5084692;28;19957;-59
2021/03/03 12:45:59;;;;;;;;;;;9.90;79.20;;;;;;5108521;27;19915;-58
2021/03/03 12:48:24;;;;;;;;;;;10.00;79.30;;;;;;5105576;27;20367;-59
2021/03/03 12:50:50;;;;;;;;;;;10.00;79.10;;;;;;5107314;28;19916;-57
2021/03/03 12:53:15;;;;;;;;;;;10.10;79.00;;;;;;5106299;27;19916;-57
2021/03/03 12:55:41;;;;;;;;;;;10.10;78.80;;;;;;5098467;28;19964;-58
2021/03/03 12:58:06;;;;;;;;;;;10.10;79.00;;;;;;5103386;28;20383;-57
2021/03/03 13:00:32;;;;;;;;;;;10.20;78.90;;;;;;5090497;28;19919;-56
2021/03/03 13:02:57;;;;;;;;;;;10.20;79.00;;;;;;5107362;28;19919;-58
2021/03/03 13:05:23;;;;;;;;;;;10.30;79.00;;;;;;5106732;28;19965;-57
2021/03/03 13:07:48;;;;;;;;;;;10.30;78.70;;;;;;5106172;28;20509;-58
2021/03/03 13:10:13;;;;;;;;;;;10.30;78.70;;;;;;5105324;28;19916;-59
2021/03/03 13:12:39;;;;;;;;;;;10.30;78.60;;;;;;5101444;27;19965;-61
2021/03/03 13:15:05;;;;;;;;;;;10.40;78.60;;;;;;5104862;28;20462;-59
2021/03/03 13:17:30;;;;;;;;;;;10.40;78.30;;;;;;5105307;27;19959;-58
2021/03/03 13:19:56;;;;;;;;;;;10.40;78.70;;;;;;5106122;27;19954;-57
2021/03/03 13:22:22;;;;;;;;;;;10.50;78.70;;;;;;5107737;27;19916;-59
2021/03/03 13:24:47;;;;;;;;;;;10.50;79.00;;;;;;5102362;27;19916;-58
2021/03/03 13:27:13;;;;;;;;;;;10.50;79.30;;;;;;5102142;28;19916;-56
2021/03/03 13:29:38;;;;;;;;;;;10.50;78.20;;;;;;5082545;28;19912;-56
2021/03/03 13:32:09;;;;;;;;;;;10.60;78.10;;;;;;5110342;27;19927;-58
2021/03/03 13:34:35;;;;;;;;;;;10.60;78.00;;;;;;5085845;28;19916;-57
2021/03/03 13:37:01;;;;;;;;;;;10.60;78.30;;;;;;5107882;27;20011;-57
2021/03/03 13:39:26;;;;;;;;;;;10.70;78.50;;;;;;5085758;28;21003;-58
2021/03/03 13:41:52;;;;;;;;;;;10.70;78.30;;;;;;5100789;28;19919;-58
2021/03/03 13:44:17;;;;;;;;;;;10.70;78.40;;;;;;5090161;28;19966;-58
2021/03/03 13:46:43;;;;;;;;;;;10.80;78.50;;;;;;5098309;28;19924;-57
2021/03/03 13:49:08;;;;;;;;;;;10.80;78.50;;;;;;5095670;28;20477;-56
2021/03/03 13:51:33;;;;;;;;;;;10.80;78.10;;;;;;5098316;28;19916;-59
2021/03/03 13:53:59;;;;;;;;;;;10.90;78.40;;;;;;5100250;28;19911;-59
2021/03/03 13:56:24;;;;;;;;;;;10.80;78.00;;;;;;5092364;28;19988;-57
2021/03/03 13:58:50;;;;;;;;;;;10.90;78.20;;;;;;5104325;28;19920;-58
2021/03/03 14:01:15;;;;;;;;;;;10.90;78.00;;;;;;5097747;27;20360;-58
2021/03/03 14:03:41;;;;;;;;;;;10.90;78.10;;;;;;5083275;28;19928;-58
2021/03/03 14:06:06;;;;;;;;;;;11.00;77.70;;;;;;5103765;28;19919;-59
2021/03/03 14:08:32;;;;;;;;;;;11.00;77.70;;;;;;5101727;28;19916;-58
2021/03/03 14:10:57;;;;;;;;;;;11.00;78.10;;;;;;5101851;28;19916;-56
2021/03/03 14:13:25;;;;;;;;;;;11.00;77.70;;;;;;5109515;28;20331;-57
2021/03/03 14:15:50;;;;;;;;;;;11.10;78.00;;;;;;5104598;28;19919;-59
2021/03/03 14:18:16;;;;;;;;;;;11.10;78.10;;;;;;5108606;28;19912;-59
2021/03/03 14:20:41;;;;;;;;;;;11.10;77.70;;;;;;5105282;28;19923;-58
2021/03/03 14:23:06;;;;;;;;;;;11.20;77.60;;;;;;5082775;28;19962;-60
2021/03/03 14:25:32;;;;;;;;;;;11.20;77.30;;;;;;5102028;28;19935;-59
2021/03/03 14:27:57;;;;;;;;;;;11.40;77.20;;;;;;5096548;28;19916;-59